Johnson, New York
Current Conditions -  °F | °C
As of 10:53 AM on Thursday 29 Jan 2015 (Local Time) from KFWN Reporting Station
Clear Clear  
Wind Chill: 19°   Ceiling: Unl
Heat Index: 19°   Visibility: 10mi
Dew Point:   Wind: 0mph
Humidity: 50%   Direction: NA
Pressure: 30.27"   Gusts: NA
Location:  41.37°N, 74.51°W
Report Text: KFWN 291553Z AUTO 00000KT 10SM CLR M07/M16 A3027 RMK AO2 UPB1455E30 SLP256 P0000 T10721161
Loading
Personal Weather Stations






























Interactive Weather Map New forecast layout! Learn more

10-Day Weather Forecast

Advertisements
Track Severe Weather on mobile